Time;durP1;ratioP1;P1;durP2;ratioP2;P2;SDS_P1;SDS_P2;PMS_P1;PMS_P2;Temp;Humidity;BMP_temperature;BMP_pressure;BME280_temperature;BME280_humidity;BME280_pressure;Samples;Min_cycle;Max_cycle;Signal;HPM_P1;HPM_P2
2022/08/21 00:01:25;;;;;;;19.23;9.38;;;16.30;99.90;;;;;;7391571;19;20014;-80
2022/08/21 00:03:51;;;;;;;16.00;9.32;;;16.30;99.90;;;;;;7393401;19;20038;-80
2022/08/21 00:06:17;;;;;;;15.65;9.15;;;16.30;99.90;;;;;;7392895;19;20015;-80
2022/08/21 00:08:43;;;;;;;14.52;8.68;;;16.20;99.90;;;;;;7393041;19;20010;-80
2022/08/21 00:11:09;;;;;;;18.45;9.45;;;16.30;99.90;;;;;;7392898;19;20348;-80
2022/08/21 00:13:36;;;;;;;17.52;9.45;;;16.20;99.90;;;;;;7392941;19;20018;-80
2022/08/21 00:16:03;;;;;;;15.77;8.73;;;16.20;99.90;;;;;;7389486;19;20495;-80
2022/08/21 00:18:29;;;;;;;14.38;9.23;;;16.20;99.90;;;;;;7391969;19;20007;-80
2022/08/21 00:20:55;;;;;;;17.13;9.40;;;16.20;99.90;;;;;;7390402;19;20021;-80
2022/08/21 00:23:25;;;;;;;19.13;9.13;;;16.20;99.90;;;;;;7391594;19;20033;-80
2022/08/21 00:25:51;;;;;;;16.52;9.45;;;16.20;99.90;;;;;;7392328;19;20363;-80
2022/08/21 00:28:17;;;;;;;12.63;8.93;;;16.10;99.90;;;;;;7390853;19;20015;-80
2022/08/21 00:30:43;;;;;;;18.33;9.60;;;16.10;99.90;;;;;;7392322;19;20028;-80
2022/08/21 00:33:10;;;;;;;16.17;9.25;;;16.10;99.90;;;;;;7392602;19;20081;-80
2022/08/21 00:35:39;;;;;;;17.30;10.75;;;16.00;99.90;;;;;;7392277;19;20022;-80
2022/08/21 00:38:07;;;;;;;20.30;9.82;;;16.00;99.90;;;;;;7392522;19;20018;-80
2022/08/21 00:40:41;;;;;;;14.32;10.10;;;16.00;99.90;;;;;;7399652;19;20085;-80
2022/08/21 00:43:10;;;;;;;16.33;10.10;;;15.90;99.90;;;;;;7400126;19;20014;-79
2022/08/21 00:45:37;;;;;;;18.17;9.75;;;15.90;99.90;;;;;;7404205;19;20014;-79
2022/08/21 00:48:03;;;;;;;14.68;9.50;;;15.90;99.90;;;;;;7398073;19;20015;-79
2022/08/21 00:50:32;;;;;;;20.15;10.77;;;15.80;99.90;;;;;;7399145;19;20028;-79
2022/08/21 00:53:01;;;;;;;19.63;10.10;;;15.80;99.90;;;;;;7399121;19;20011;-79
2022/08/21 00:55:28;;;;;;;26.95;10.75;;;15.70;99.90;;;;;;7398881;19;20014;-79
2022/08/21 00:57:56;;;;;;;15.25;9.90;;;15.70;99.90;;;;;;7398831;19;20007;-79
2022/08/21 01:00:30;;;;;;;16.48;11.40;;;15.60;99.90;;;;;;7397978;19;20010;-79
2022/08/21 01:02:57;;;;;;;15.63;10.85;;;15.60;99.90;;;;;;7398998;19;20023;-79
2022/08/21 01:05:24;;;;;;;17.88;11.15;;;15.60;99.90;;;;;;7398785;19;20006;-80
2022/08/21 01:07:50;;;;;;;19.15;12.27;;;15.60;99.90;;;;;;7397595;19;20403;-80
2022/08/21 01:10:17;;;;;;;16.33;11.45;;;15.60;99.90;;;;;;7398792;19;20011;-79
2022/08/21 01:12:43;;;;;;;21.45;11.93;;;15.50;99.90;;;;;;7398361;19;20007;-79
2022/08/21 01:15:10;;;;;;;21.27;11.68;;;15.50;99.90;;;;;;7397194;19;20026;-79
2022/08/21 01:17:37;;;;;;;17.42;11.35;;;15.50;99.90;;;;;;7398027;19;20392;-79
2022/08/21 01:20:07;;;;;;;18.77;11.13;;;15.50;99.90;;;;;;7396112;19;20011;-79
2022/08/21 01:22:34;;;;;;;23.23;11.30;;;15.50;99.90;;;;;;7396630;19;20034;-80
2022/08/21 01:24:59;;;;;;;19.33;11.15;;;15.60;99.90;;;;;;7396400;19;20017;-79
2022/08/21 01:27:25;;;;;;;21.80;10.90;;;15.60;99.90;;;;;;7395804;19;20053;-79
2022/08/21 01:29:56;;;;;;;20.90;13.07;;;15.60;99.90;;;;;;7398026;19;20122;-79
2022/08/21 01:32:23;;;;;;;20.17;12.80;;;15.60;99.90;;;;;;7396254;19;20089;-79
2022/08/21 01:34:51;;;;;;;24.83;13.05;;;15.60;99.90;;;;;;7397994;19;20105;-79
2022/08/21 01:37:19;;;;;;;21.05;12.18;;;15.60;99.90;;;;;;7397976;19;20034;-79
2022/08/21 01:39:45;;;;;;;22.33;12.63;;;15.60;99.90;;;;;;7393957;19;20015;-79
2022/08/21 01:42:12;;;;;;;20.05;11.38;;;15.60;99.90;;;;;;7398003;19;20014;-79
2022/08/21 01:44:39;;;;;;;19.92;11.45;;;15.60;99.90;;;;;;7400486;19;20011;-79
2022/08/21 01:47:07;;;;;;;22.58;11.57;;;15.60;99.90;;;;;;7395782;19;20074;-79
2022/08/21 01:49:35;;;;;;;19.30;10.60;;;15.60;99.90;;;;;;7395497;19;20017;-80
2022/08/21 01:52:02;;;;;;;18.48;10.43;;;15.60;99.90;;;;;;7396447;19;20610;-79
2022/08/21 01:54:28;;;;;;;17.90;10.18;;;15.60;99.90;;;;;;7397012;19;20006;-79
2022/08/21 01:56:54;;;;;;;18.42;10.30;;;15.60;99.90;;;;;;7398012;19;20006;-79
2022/08/21 01:59:22;;;;;;;21.33;11.00;;;15.60;99.90;;;;;;7393838;19;20011;-79
2022/08/21 02:01:48;;;;;;;21.67;10.38;;;15.60;99.90;;;;;;7396225;19;20003;-79
2022/08/21 02:04:15;;;;;;;22.30;10.05;;;15.60;99.90;;;;;;7396965;19;20376;-79
2022/08/21 02:06:41;;;;;;;17.13;9.88;;;15.60;99.90;;;;;;7396749;19;20393;-79
2022/08/21 02:09:09;;;;;;;22.00;10.23;;;15.60;99.90;;;;;;7397238;19;20017;-79
2022/08/21 02:11:36;;;;;;;15.18;9.30;;;15.60;99.90;;;;;;7396679;19;20073;-79
2022/08/21 02:14:02;;;;;;;15.35;9.38;;;15.70;99.90;;;;;;7396519;19;20014;-79
2022/08/21 02:16:28;;;;;;;17.25;9.98;;;15.70;99.90;;;;;;7394729;19;20027;-79
2022/08/21 02:18:54;;;;;;;18.88;9.70;;;15.70;99.90;;;;;;7393465;19;20021;-79
2022/08/21 02:21:20;;;;;;;16.65;10.43;;;15.70;99.90;;;;;;7396763;19;20022;-79
2022/08/21 02:23:45;;;;;;;20.92;10.20;;;15.60;99.90;;;;;;7396201;19;20361;-79
2022/08/21 02:26:12;;;;;;;13.70;9.88;;;15.60;99.90;;;;;;7396778;19;20025;-79
2022/08/21 02:28:39;;;;;;;15.07;9.50;;;15.50;99.90;;;;;;7392762;19;20015;-79
2022/08/21 02:31:06;;;;;;;16.33;9.75;;;15.50;99.90;;;;;;7396030;19;20014;-79
2022/08/21 02:33:33;;;;;;;19.38;10.55;;;15.40;99.90;;;;;;7394452;19;20014;-79
2022/08/21 02:35:59;;;;;;;17.30;9.82;;;15.40;99.90;;;;;;7396048;19;20010;-79
2022/08/21 02:38:30;;;;;;;14.73;8.90;;;15.40;99.90;;;;;;7394994;19;20030;-79
2022/08/21 02:40:57;;;;;;;15.90;9.10;;;15.30;99.90;;;;;;7395577;19;20020;-78
2022/08/21 02:43:25;;;;;;;15.90;9.00;;;15.30;99.90;;;;;;7395492;19;20018;-78
2022/08/21 02:45:54;;;;;;;17.77;9.02;;;15.30;99.90;;;;;;7395966;19;20078;-79
2022/08/21 02:48:23;;;;;;;17.48;9.57;;;15.30;99.90;;;;;;7395471;19;20014;-79
2022/08/21 02:51:18;;;;;;;14.23;8.05;;;15.30;99.90;;;;;;7395097;19;20015;-79
2022/08/21 02:53:45;;;;;;;16.10;8.95;;;15.20;99.90;;;;;;7394578;19;20045;-79
2022/08/21 02:56:14;;;;;;;16.13;8.05;;;15.20;99.90;;;;;;7395302;19;20032;-79
2022/08/21 02:58:44;;;;;;;15.15;8.57;;;15.20;99.90;;;;;;7394103;19;20019;-79
2022/08/21 03:01:11;;;;;;;17.50;8.60;;;15.20;99.90;;;;;;7394548;19;20442;-79
2022/08/21 03:03:41;;;;;;;15.82;7.45;;;15.20;99.90;;;;;;7394850;19;20375;-79
2022/08/21 03:06:09;;;;;;;14.23;7.35;;;15.20;99.90;;;;;;7394821;19;20029;-79
2022/08/21 03:08:36;;;;;;;12.75;7.72;;;15.20;99.90;;;;;;7392920;19;20042;-79
2022/08/21 03:11:03;;;;;;;13.82;7.53;;;15.20;99.90;;;;;;7393067;19;20479;-79
2022/08/21 03:13:29;;;;;;;15.38;7.40;;;15.10;99.90;;;;;;7394930;19;20014;-79
2022/08/21 03:15:55;;;;;;;17.45;7.78;;;15.10;99.90;;;;;;7393444;19;20022;-79
2022/08/21 03:18:22;;;;;;;18.75;8.25;;;15.10;99.90;;;;;;7394054;19;20018;-79
2022/08/21 03:20:48;;;;;;;21.48;9.27;;;15.10;99.90;;;;;;7393793;19;20394;-79
2022/08/21 03:23:16;;;;;;;15.18;8.95;;;15.10;99.90;;;;;;7394543;19;20018;-79
2022/08/21 03:25:43;;;;;;;18.15;9.93;;;15.10;99.90;;;;;;7394481;19;20025;-79
2022/08/21 03:28:12;;;;;;;14.45;10.18;;;15.10;99.90;;;;;;7393105;19;20014;-79
2022/08/21 03:30:39;;;;;;;22.58;12.32;;;15.00;99.90;;;;;;7394106;19;20022;-79
2022/08/21 03:33:04;;;;;;;23.13;12.98;;;15.00;99.90;;;;;;7393726;19;20021;-79
2022/08/21 03:35:30;;;;;;;20.90;14.85;;;15.00;99.90;;;;;;7394037;19;20014;-79
2022/08/21 03:37:56;;;;;;;22.60;15.52;;;15.00;99.90;;;;;;7392000;19;20010;-79
2022/08/21 03:40:24;;;;;;;26.02;19.67;;;14.90;99.90;;;;;;7392394;19;20002;-79
2022/08/21 03:42:50;;;;;;;33.40;22.13;;;14.90;99.90;;;;;;7393991;19;20038;-79
2022/08/21 03:45:18;;;;;;;28.08;21.15;;;14.90;99.90;;;;;;7398184;19;20021;-79
2022/08/21 03:47:57;;;;;;;28.95;19.23;;;14.90;99.90;;;;;;7393371;19;20017;-79
2022/08/21 03:50:25;;;;;;;25.50;17.90;;;14.90;99.90;;;;;;7393320;19;20014;-79
2022/08/21 03:52:51;;;;;;;20.00;16.48;;;14.80;99.90;;;;;;7393490;19;20078;-79
2022/08/21 03:55:18;;;;;;;24.40;16.27;;;14.80;99.90;;;;;;7393378;19;20151;-79
2022/08/21 03:57:44;;;;;;;18.88;13.25;;;14.80;99.90;;;;;;7391548;19;20486;-79
2022/08/21 04:00:11;;;;;;;19.42;12.45;;;14.70;99.90;;;;;;7391987;19;20010;-80
2022/08/21 04:02:39;;;;;;;18.77;12.68;;;14.70;99.90;;;;;;7393109;19;20041;-79
2022/08/21 04:05:05;;;;;;;20.00;12.52;;;14.70;99.90;;;;;;7393256;19;20045;-79
2022/08/21 04:07:31;;;;;;;21.60;12.38;;;14.70;99.90;;;;;;7393068;19;20018;-79
2022/08/21 04:09:57;;;;;;;20.38;12.80;;;14.60;99.90;;;;;;7393264;19;20482;-80
2022/08/21 04:12:23;;;;;;;18.00;12.43;;;14.60;99.90;;;;;;7391896;19;20092;-79
2022/08/21 04:14:51;;;;;;;21.80;12.52;;;14.60;99.90;;;;;;7397790;19;20030;-79
2022/08/21 04:17:17;;;;;;;20.30;12.48;;;14.60;99.90;;;;;;7400155;19;20117;-79
2022/08/21 04:19:43;;;;;;;21.58;12.35;;;14.70;99.90;;;;;;7397354;19;20366;-80
2022/08/21 04:22:09;;;;;;;24.42;13.27;;;14.70;99.90;;;;;;7400117;19;20011;-80
2022/08/21 04:24:35;;;;;;;23.08;13.25;;;14.70;99.90;;;;;;7400149;19;20014;-79
2022/08/21 04:27:01;;;;;;;19.45;12.52;;;14.70;99.90;;;;;;7399827;19;20054;-79
2022/08/21 04:29:30;;;;;;;19.95;11.85;;;14.60;99.90;;;;;;7400276;19;20006;-79
2022/08/21 04:31:56;;;;;;;20.42;11.80;;;14.60;99.90;;;;;;7400013;19;20368;-80
2022/08/21 04:34:22;;;;;;;19.65;12.27;;;14.70;99.90;;;;;;7400106;19;20362;-79
2022/08/21 04:36:47;;;;;;;22.45;11.43;;;14.70;99.90;;;;;;7400078;19;20014;-79
2022/08/21 04:39:13;;;;;;;13.00;8.02;;;14.80;99.90;;;;;;7398114;19;20010;-79
2022/08/21 04:41:39;;;;;;;17.08;10.30;;;14.80;99.90;;;;;;7400090;19;20570;-79
2022/08/21 04:44:06;;;;;;;22.92;11.02;;;14.80;99.90;;;;;;7401657;19;20349;-79
2022/08/21 04:46:32;;;;;;;19.65;10.90;;;14.80;99.90;;;;;;7400338;19;20026;-79
2022/08/21 04:48:59;;;;;;;16.98;8.40;;;14.80;99.90;;;;;;7398880;19;20093;-79
2022/08/21 04:51:31;;;;;;;16.35;10.52;;;14.80;99.90;;;;;;7397592;19;20028;-79
2022/08/21 04:54:08;;;;;;;16.98;10.43;;;14.80;99.90;;;;;;7399473;19;20011;-79
2022/08/21 04:56:45;;;;;;;18.15;10.70;;;14.80;99.90;;;;;;7399069;19;20018;-79
2022/08/21 04:59:20;;;;;;;18.25;10.73;;;14.80;99.90;;;;;;7395555;19;20018;-79
2022/08/21 05:01:47;;;;;;;17.25;10.77;;;14.80;99.90;;;;;;7399126;19;20078;-79
2022/08/21 05:04:16;;;;;;;14.98;10.48;;;14.80;99.90;;;;;;7398979;19;20479;-79
2022/08/21 05:06:45;;;;;;;14.90;9.70;;;14.80;99.90;;;;;;7398706;19;20473;-80
2022/08/21 05:09:14;;;;;;;19.48;10.65;;;14.80;99.90;;;;;;7398617;19;20014;-79
2022/08/21 05:11:41;;;;;;;19.58;10.35;;;14.80;99.90;;;;;;7399281;19;20042;-79
2022/08/21 05:14:07;;;;;;;17.58;10.23;;;14.80;99.90;;;;;;7398360;19;20010;-79
2022/08/21 05:16:33;;;;;;;13.93;9.70;;;14.80;99.90;;;;;;7398669;19;20362;-79
2022/08/21 05:18:59;;;;;;;18.00;9.40;;;14.90;99.90;;;;;;7395092;19;20475;-79
2022/08/21 05:21:25;;;;;;;17.60;9.70;;;14.80;99.90;;;;;;7398264;19;20483;-79
2022/08/21 05:23:51;;;;;;;16.67;8.82;;;15.00;99.90;;;;;;7397955;19;20022;-79
2022/08/21 05:26:16;;;;;;;11.88;8.15;;;15.20;99.90;;;;;;7398277;19;20011;-80
2022/08/21 05:28:42;;;;;;;14.45;9.00;;;15.30;99.90;;;;;;7396383;19;20011;-79
2022/08/21 05:31:08;;;;;;;11.48;8.05;;;15.30;99.90;;;;;;7398128;19;20006;-79
2022/08/21 05:33:34;;;;;;;12.82;8.63;;;15.40;99.90;;;;;;7398031;19;20539;-80
2022/08/21 05:36:00;;;;;;;13.93;7.78;;;15.70;99.90;;;;;;7398002;19;20038;-79
2022/08/21 05:38:28;;;;;;;14.93;8.55;;;15.80;99.90;;;;;;7396920;19;20628;-80
2022/08/21 05:40:54;;;;;;;18.80;9.40;;;15.80;99.90;;;;;;7397873;19;20002;-79
2022/08/21 05:43:20;;;;;;;15.52;8.70;;;15.80;99.90;;;;;;7397436;19;20480;-79
2022/08/21 05:45:47;;;;;;;14.23;8.40;;;15.70;99.90;;;;;;7397499;19;20014;-79
2022/08/21 05:48:14;;;;;;;5.93;3.80;;;15.70;99.90;;;;;;7396056;19;20027;-79
2022/08/21 05:50:43;;;;;;;11.52;7.72;;;15.70;99.90;;;;;;7396869;19;20503;-79
2022/08/21 05:53:10;;;;;;;13.82;8.25;;;15.70;99.90;;;;;;7395958;19;20034;-80
2022/08/21 05:55:37;;;;;;;12.90;6.85;;;15.70;99.90;;;;;;7395868;19;20010;-80
2022/08/21 05:58:03;;;;;;;14.38;8.25;;;15.70;99.90;;;;;;7397068;19;20039;-80
2022/08/21 06:00:29;;;;;;;14.32;8.90;;;15.70;99.90;;;;;;7396103;19;20033;-79
2022/08/21 06:02:55;;;;;;;11.70;7.43;;;15.80;99.90;;;;;;7397300;19;20070;-80
2022/08/21 06:05:21;;;;;;;10.73;7.25;;;15.80;99.90;;;;;;7396749;19;20022;-80
2022/08/21 06:07:47;;;;;;;8.43;3.95;;;15.90;99.90;;;;;;7395417;19;20014;-80
2022/08/21 06:10:13;;;;;;;12.48;7.40;;;16.10;99.90;;;;;;7396930;19;20022;-80
2022/08/21 06:12:39;;;;;;;10.88;7.85;;;16.20;99.90;;;;;;7397000;19;20006;-80
2022/08/21 06:15:05;;;;;;;9.93;5.72;;;16.30;99.90;;;;;;7395516;19;20467;-80
2022/08/21 06:17:33;;;;;;;11.10;7.18;;;16.40;99.90;;;;;;7395044;19;20015;-80
2022/08/21 06:19:59;;;;;;;9.90;4.72;;;16.50;99.90;;;;;;7393923;19;20014;-80
2022/08/21 06:22:25;;;;;;;13.98;7.15;;;16.70;99.90;;;;;;7394931;19;20345;-80
2022/08/21 06:24:51;;;;;;;13.07;6.53;;;17.00;99.90;;;;;;7396375;19;20025;-80
2022/08/21 06:27:17;;;;;;;10.68;6.85;;;17.10;99.90;;;;;;7394491;19;20007;-80
2022/08/21 06:29:44;;;;;;;8.23;3.92;;;17.10;99.90;;;;;;7396386;19;20034;-80
2022/08/21 06:32:12;;;;;;;11.00;5.68;;;17.20;99.90;;;;;;7396006;19;20362;-79
2022/08/21 06:34:40;;;;;;;13.80;6.25;;;17.40;99.90;;;;;;7396422;19;20475;-80
2022/08/21 06:37:06;;;;;;;15.32;6.25;;;17.50;99.90;;;;;;7394297;19;20329;-80
2022/08/21 06:39:32;;;;;;;9.48;4.50;;;17.50;99.90;;;;;;7393454;19;20011;-80
2022/08/21 06:41:58;;;;;;;15.02;5.47;;;17.60;99.90;;;;;;7394309;19;20495;-80
2022/08/21 06:44:24;;;;;;;10.18;5.03;;;17.70;99.90;;;;;;7393669;19;20376;-80
2022/08/21 06:46:49;;;;;;;12.07;4.75;;;17.70;99.90;;;;;;7395519;19;20017;-80
2022/08/21 06:49:15;;;;;;;5.47;3.33;;;17.80;99.90;;;;;;7393598;19;20021;-79
2022/08/21 06:51:42;;;;;;;9.40;5.03;;;17.90;99.90;;;;;;7393781;19;20031;-80
2022/08/21 06:54:08;;;;;;;7.38;3.70;;;18.00;99.90;;;;;;7395367;19;20011;-80
2022/08/21 06:56:36;;;;;;;9.82;4.32;;;18.20;99.90;;;;;;7395271;19;20086;-80
2022/08/21 06:59:02;;;;;;;12.27;5.32;;;18.20;99.90;;;;;;7394090;19;20381;-80
2022/08/21 07:01:28;;;;;;;6.82;3.30;;;18.30;99.90;;;;;;7393275;19;20015;-81
2022/08/21 07:03:54;;;;;;;13.40;5.18;;;18.40;99.90;;;;;;7393837;19;20011;-80
2022/08/21 07:06:20;;;;;;;6.55;2.67;;;18.50;99.90;;;;;;7395259;19;20030;-80
2022/08/21 07:08:46;;;;;;;3.95;2.42;;;18.70;99.90;;;;;;7395021;19;20015;-80
2022/08/21 07:11:19;;;;;;;10.63;4.03;;;19.10;99.90;;;;;;7393693;19;20070;-80
2022/08/21 07:13:46;;;;;;;12.18;5.15;;;19.60;99.90;;;;;;7393030;19;20010;-80
2022/08/21 07:16:12;;;;;;;13.35;4.88;;;19.90;99.90;;;;;;7392999;19;20011;-80
2022/08/21 07:18:37;;;;;;;9.25;3.72;;;19.90;99.90;;;;;;7393550;19;20053;-80
2022/08/21 07:21:07;;;;;;;12.80;5.30;;;20.00;99.90;;;;;;7392816;19;20349;-80
2022/08/21 07:23:36;;;;;;;10.25;3.97;;;20.20;99.90;;;;;;7392740;19;20021;-80
2022/08/21 07:26:02;;;;;;;6.80;2.88;;;20.50;99.90;;;;;;7394843;19;20007;-80
2022/08/21 07:28:29;;;;;;;7.03;2.97;;;21.20;99.90;;;;;;7393310;19;20033;-80
2022/08/21 07:30:57;;;;;;;4.47;2.15;;;21.80;99.90;;;;;;7394280;19;20014;-80
2022/08/21 07:33:24;;;;;;;5.22;1.95;;;22.60;99.90;;;;;;7394547;19;20018;-80
2022/08/21 07:35:50;;;;;;;9.73;2.55;;;23.20;99.90;;;;;;7392314;19;20014;-80
2022/08/21 07:38:16;;;;;;;7.68;3.00;;;23.90;99.90;;;;;;7393387;19;20014;-81
2022/08/21 07:40:42;;;;;;;7.03;2.20;;;24.30;99.90;;;;;;7392364;19;20359;-81
2022/08/21 07:43:08;;;;;;;6.88;2.28;;;24.80;99.90;;;;;;7394134;19;20014;-80
2022/08/21 07:45:34;;;;;;;9.15;2.47;;;24.90;99.90;;;;;;7393885;19;20003;-81
2022/08/21 07:47:59;;;;;;;5.50;1.80;;;24.90;99.90;;;;;;7390406;19;20015;-81
2022/08/21 07:50:25;;;;;;;9.45;2.72;;;25.00;99.90;;;;;;7391379;19;20372;-81
2022/08/21 07:52:52;;;;;;;7.28;1.98;;;25.20;99.90;;;;;;7392017;19;20026;-80
2022/08/21 07:55:19;;;;;;;5.28;1.92;;;25.10;99.90;;;;;;7393794;19;20034;-80
2022/08/21 07:57:46;;;;;;;6.15;1.77;;;25.00;99.90;;;;;;7393529;19;20010;-80
2022/08/21 08:00:19;;;;;;;7.43;2.25;;;25.10;99.90;;;;;;7391654;19;21004;-80
2022/08/21 08:02:46;;;;;;;;;;;25.30;99.90;;;;;;7393839;19;20046;-81
2022/08/21 08:05:12;;;;;;;6.47;1.92;;;25.30;99.90;;;;;;7393505;19;20329;-80
2022/08/21 08:07:38;;;;;;;6.80;1.48;;;25.40;99.90;;;;;;7392042;19;20014;-80
2022/08/21 08:10:07;;;;;;;7.25;1.77;;;25.30;99.90;;;;;;7393012;19;20066;-80
2022/08/21 08:12:34;;;;;;;5.53;1.80;;;25.20;99.90;;;;;;7393369;19;20010;-81
2022/08/21 08:15:01;;;;;;;7.03;1.95;;;25.20;99.90;;;;;;7392816;19;20031;-80
2022/08/21 08:17:28;;;;;;;8.07;2.03;;;25.30;99.90;;;;;;7391233;19;20014;-80
2022/08/21 08:19:54;;;;;;;9.88;2.60;;;25.30;99.90;;;;;;7390906;19;20014;-79
2022/08/21 08:22:23;;;;;;;8.00;2.53;;;25.30;99.90;;;;;;7393179;19;20020;-81
2022/08/21 08:24:50;;;;;;;6.57;1.90;;;25.60;99.90;;;;;;7391411;19;20435;-80
2022/08/21 08:27:17;;;;;;;8.60;2.67;;;25.40;99.90;;;;;;7393269;19;20019;-80
2022/08/21 08:29:44;;;;;;;6.53;2.17;;;25.20;99.90;;;;;;7392478;19;20346;-81
2022/08/21 08:32:10;;;;;;;4.72;1.90;;;25.30;99.90;;;;;;7392405;19;20015;-81
2022/08/21 08:34:38;;;;;;;7.00;1.90;;;24.80;99.90;;;;;;7392470;19;20011;-80
2022/08/21 08:37:05;;;;;;;4.82;1.70;;;24.20;99.90;;;;;;7391410;19;20015;-81
2022/08/21 08:39:32;;;;;;;7.80;1.90;;;23.90;99.90;;;;;;7388896;19;20368;-80
2022/08/21 08:42:13;;;;;;;6.15;1.88;;;23.70;99.90;;;;;;7392609;19;20022;-80
2022/08/21 08:44:40;;;;;;;8.90;2.28;;;23.60;99.90;;;;;;7392661;19;20014;-80
2022/08/21 08:47:08;;;;;;;3.55;1.48;;;23.60;99.90;;;;;;7392392;19;20025;-80
2022/08/21 08:49:37;;;;;;;5.03;1.83;;;23.50;99.90;;;;;;7390501;19;20082;-80
2022/08/21 08:52:20;;;;;;;7.55;1.95;;;23.40;99.90;;;;;;7391965;19;20019;-80
2022/08/21 08:54:55;;;;;;;7.50;1.80;;;23.50;99.90;;;;;;7392286;19;20020;-81
2022/08/21 08:57:24;;;;;;;4.85;1.67;;;23.60;99.90;;;;;;7390789;19;20015;-80
2022/08/21 08:59:56;;;;;;;7.05;1.67;;;23.50;99.90;;;;;;7392575;19;20007;-80
2022/08/21 09:02:27;;;;;;;7.60;1.48;;;23.50;99.90;;;;;;7397635;19;20018;-80
2022/08/21 09:04:53;;;;;;;9.18;2.00;;;23.50;99.90;;;;;;7399540;19;20033;-79
2022/08/21 09:07:31;;;;;;;6.97;1.98;;;23.60;99.90;;;;;;7399059;19;20351;-79
2022/08/21 09:10:17;;;;;;;5.80;1.88;;;23.80;99.90;;;;;;7397202;19;20010;-79
2022/08/21 09:13:02;;;;;;;6.43;1.90;;;23.70;99.90;;;;;;7398949;19;20035;-80
2022/08/21 09:15:41;;;;;;;8.63;2.00;;;23.80;99.90;;;;;;7397269;19;20035;-80
2022/08/21 09:18:25;;;;;;;5.38;1.67;;;23.80;99.90;;;;;;7396599;19;20363;-80
2022/08/21 09:21:42;;;;;;;4.65;1.67;;;23.80;99.90;;;;;;7398463;19;20033;-80
2022/08/21 09:24:28;;;;;;;7.97;2.38;;;23.80;99.90;;;;;;7396752;19;20014;-79
2022/08/21 09:27:02;;;;;;;6.22;1.88;;;23.80;99.90;;;;;;7397842;19;20014;-79
2022/08/21 09:29:32;;;;;;;6.00;1.83;;;23.90;99.90;;;;;;7398198;19;20003;-79
2022/08/21 09:31:58;;;;;;;5.18;1.70;;;24.00;99.90;;;;;;7398052;19;20494;-79
2022/08/21 09:34:28;;;;;;;5.20;1.65;;;24.10;99.90;;;;;;7398040;19;20018;-79
2022/08/21 09:36:55;;;;;;;5.18;1.45;;;24.20;99.90;;;;;;7397819;19;20045;-79
2022/08/21 09:39:37;;;;;;;4.70;1.88;;;24.20;99.90;;;;;;7396484;19;20026;-79
2022/08/21 09:42:07;;;;;;;4.97;1.70;;;24.30;99.90;;;;;;7396706;19;20011;-79
2022/08/21 09:44:43;;;;;;;4.72;1.58;;;24.40;99.90;;;;;;7398110;19;20044;-79
2022/08/21 09:47:12;;;;;;;5.32;1.80;;;24.40;99.90;;;;;;7397960;19;20013;-80
2022/08/21 09:49:40;;;;;;;6.13;2.03;;;24.40;99.90;;;;;;7395648;19;20683;-79
2022/08/21 09:52:24;;;;;;;5.68;1.85;;;24.30;99.90;;;;;;7397909;19;20336;-79
2022/08/21 09:54:54;;;;;;;7.50;2.00;;;24.30;99.90;;;;;;7397881;19;20122;-79
2022/08/21 09:57:41;;;;;;;4.35;1.50;;;24.30;99.90;;;;;;7396107;19;20018;-79
2022/08/21 10:00:30;;;;;;;6.25;1.90;;;24.40;99.90;;;;;;7395208;19;20021;-79
2022/08/21 10:03:28;;;;;;;5.38;1.50;;;24.30;99.90;;;;;;7397084;19;20074;-79
2022/08/21 10:06:08;;;;;;;4.57;1.60;;;24.40;99.90;;;;;;7394428;19;20085;-79
2022/08/21 10:08:39;;;;;;;4.97;1.75;;;24.50;99.90;;;;;;7396731;19;20023;-79
2022/08/21 10:11:13;;;;;;;5.32;1.38;;;24.40;99.90;;;;;;7394440;19;20368;-79
2022/08/21 10:13:50;;;;;;;4.00;1.40;;;24.50;99.90;;;;;;7397130;19;20037;-79
2022/08/21 10:16:51;;;;;;;5.45;1.50;;;24.60;99.90;;;;;;7393546;19;20015;-79
2022/08/21 10:19:35;;;;;;;6.25;1.73;;;24.70;99.90;;;;;;7395368;19;20010;-79
2022/08/21 10:22:19;;;;;;;6.15;1.60;;;24.70;99.90;;;;;;7396668;19;20018;-79
2022/08/21 10:24:54;;;;;;;6.28;1.65;;;24.60;99.90;;;;;;7396425;19;20021;-78
2022/08/21 10:27:38;;;;;;;5.30;1.65;;;24.50;99.90;;;;;;7395763;19;20014;-79
2022/08/21 10:30:17;;;;;;;5.85;1.67;;;24.50;99.80;;;;;;7394381;19;20014;-79
2022/08/21 10:33:05;;;;;;;5.70;2.10;;;24.60;99.90;;;;;;7396066;19;20497;-78
2022/08/21 10:35:52;;;;;;;4.68;1.58;;;24.70;99.90;;;;;;7395957;19;20022;-79
2022/08/21 10:38:49;;;;;;;4.68;1.45;;;24.80;99.30;;;;;;7395513;19;20587;-79
2022/08/21 10:41:30;;;;;;;5.32;1.80;;;24.90;99.30;;;;;;7394720;19;20015;-78
2022/08/21 10:44:05;;;;;;;4.32;1.15;;;25.00;99.20;;;;;;7396718;19;20445;-79
2022/08/21 10:46:58;;;;;;;6.72;1.73;;;25.00;99.50;;;;;;7395572;19;20028;-78
2022/08/21 10:49:43;;;;;;;3.30;1.40;;;25.10;99.40;;;;;;7393738;19;20010;-78
2022/08/21 10:52:37;;;;;;;4.80;1.30;;;25.30;99.20;;;;;;7395656;19;20006;-78
2022/08/21 10:55:11;;;;;;;3.53;1.30;;;25.30;98.80;;;;;;7393504;19;20011;-79
2022/08/21 10:57:41;;;;;;;;;;;25.30;98.70;;;;;;7394972;19;20088;-78
2022/08/21 11:00:15;;;;;;;5.80;1.50;;;25.20;98.70;;;;;;7393510;19;19918;-79
2022/08/21 11:03:05;;;;;;;6.90;1.80;;;25.20;98.70;;;;;;7395015;19;20491;-80
2022/08/21 11:05:35;;;;;;;4.55;1.23;;;25.30;98.80;;;;;;7394988;19;20014;-80
2022/08/21 11:08:27;;;;;;;8.30;1.80;;;25.40;98.70;;;;;;7394740;19;20073;-80
2022/08/21 11:11:05;;;;;;;5.10;1.50;;;25.30;97.00;;;;;;7393143;19;20010;-80
2022/08/21 11:14:09;;;;;;;4.93;1.30;;;25.30;97.80;;;;;;7392986;19;20018;-80
2022/08/21 11:16:48;;;;;;;8.27;1.90;;;25.40;98.10;;;;;;7393376;19;20019;-79
2022/08/21 11:19:21;;;;;;;7.20;1.80;;;25.60;98.40;;;;;;7393098;19;20011;-81
2022/08/21 11:21:49;;;;;;;5.07;1.75;;;25.80;98.30;;;;;;7392448;19;20011;-80
2022/08/21 11:24:46;;;;;;;5.40;1.63;;;25.90;97.90;;;;;;7393926;19;20010;-80
2022/08/21 11:27:27;;;;;;;5.32;1.58;;;25.60;97.50;;;;;;7392540;19;20010;-79
2022/08/21 11:29:57;;;;;;;3.78;1.20;;;25.60;97.90;;;;;;7393983;19;20397;-80
2022/08/21 11:32:23;;;;;;;5.18;1.60;;;25.60;98.20;;;;;;7394137;19;20359;-80
2022/08/21 11:35:18;;;;;;;3.80;1.27;;;25.60;98.10;;;;;;7394509;19;20011;-79
2022/08/21 11:38:12;;;;;;;3.75;1.23;;;25.60;98.20;;;;;;7394341;19;20022;-80
2022/08/21 11:41:22;;;;;;;3.35;1.30;;;25.70;98.20;;;;;;7394065;19;20011;-80
2022/08/21 11:43:55;;;;;;;4.20;1.40;;;25.70;98.30;;;;;;7393832;19;20506;-80
2022/08/21 11:46:39;;;;;;;3.47;1.35;;;25.60;98.20;;;;;;7393612;19;20029;-80
2022/08/21 11:49:08;;;;;;;5.68;1.58;;;25.70;98.40;;;;;;7393093;19;20486;-79
2022/08/21 11:52:08;;;;;;;5.05;1.50;;;25.60;97.60;;;;;;7391911;19;20475;-80
2022/08/21 11:54:59;;;;;;;5.85;1.70;;;25.50;97.80;;;;;;7392360;19;20015;-80
2022/08/21 11:57:59;;;;;;;4.80;1.50;;;25.50;97.90;;;;;;7393156;19;20042;-80
2022/08/21 12:00:50;;;;;;;3.17;1.17;;;25.40;98.10;;;;;;7389706;19;20034;-80
2022/08/21 12:03:24;;;;;;;3.45;1.42;;;25.40;98.10;;;;;;7393449;19;20021;-80
2022/08/21 12:06:26;;;;;;;2.72;1.10;;;25.40;98.50;;;;;;7393106;19;20022;-80
2022/08/21 12:09:10;;;;;;;3.05;1.10;;;25.30;97.80;;;;;;7392084;19;20015;-80
2022/08/21 12:12:01;;;;;;;2.78;1.30;;;25.30;98.40;;;;;;7392989;19;20023;-80
2022/08/21 12:14:38;;;;;;;4.15;1.17;;;25.30;98.60;;;;;;7392420;19;20049;-80
2022/08/21 12:17:07;;;;;;;4.97;1.30;;;25.40;98.40;;;;;;7391644;19;20010;-80
2022/08/21 12:19:34;;;;;;;3.15;1.20;;;25.30;98.20;;;;;;7389816;19;20021;-80
2022/08/21 12:22:10;;;;;;;3.47;1.40;;;25.30;98.40;;;;;;7392556;19;20055;-80
2022/08/21 12:24:41;;;;;;;3.13;1.08;;;25.30;98.00;;;;;;7392562;19;20475;-80
2022/08/21 12:27:30;;;;;;;2.90;1.40;;;25.30;98.40;;;;;;7390515;19;20090;-80
2022/08/21 12:30:00;;;;;;;3.55;1.13;;;25.20;98.60;;;;;;7392178;19;20018;-80
2022/08/21 12:32:29;;;;;;;5.18;1.42;;;25.00;98.70;;;;;;7392810;19;20471;-80
2022/08/21 12:35:09;;;;;;;4.93;1.27;;;25.00;98.60;;;;;;7395277;19;20831;-79
2022/08/21 12:37:44;;;;;;;4.95;1.40;;;24.80;98.80;;;;;;7399848;19;20490;-80
2022/08/21 12:40:16;;;;;;;3.28;1.27;;;24.60;99.20;;;;;;7397102;19;20392;-80
2022/08/21 12:42:49;;;;;;;3.03;1.10;;;24.60;99.30;;;;;;7400442;19;20010;-80
2022/08/21 12:45:30;;;;;;;5.30;1.33;;;24.60;99.50;;;;;;7397879;19;20007;-80
2022/08/21 12:48:04;;;;;;;4.40;1.10;;;24.60;99.60;;;;;;7399997;19;20030;-80
2022/08/21 12:50:49;;;;;;;4.13;1.38;;;24.60;99.80;;;;;;7398813;19;20007;-80
2022/08/21 12:53:40;;;;;;;3.40;1.10;;;24.50;99.90;;;;;;7399386;19;20078;-79
2022/08/21 12:56:10;;;;;;;4.43;1.23;;;24.50;99.90;;;;;;7399163;19;20010;-79
2022/08/21 12:58:40;;;;;;;3.83;1.30;;;24.50;99.90;;;;;;7398400;19;20036;-80
2022/08/21 13:01:16;;;;;;;4.00;1.10;;;24.60;99.80;;;;;;7399209;19;20019;-80